sensor_id;sensor_type;location;lat;lon;timestamp;pressure;altitude;pressure_sealevel;temperature;humidity
71149;BME280;59072;42.144;25.200;2023-07-31T00:01:15;99392.63;;;24.52;49.19
71149;BME280;59072;42.144;25.200;2023-07-31T00:03:40;99393.88;;;24.55;49.03
71149;BME280;59072;42.144;25.200;2023-07-31T00:06:06;99406.66;;;24.63;49.25
71149;BME280;59072;42.144;25.200;2023-07-31T00:08:34;99404.75;;;24.84;48.74
71149;BME280;59072;42.144;25.200;2023-07-31T00:11:00;99414.56;;;24.85;48.38
71149;BME280;59072;42.144;25.200;2023-07-31T00:13:25;99409.09;;;24.85;48.76
71149;BME280;59072;42.144;25.200;2023-07-31T00:15:53;99414.41;;;24.82;48.72
71149;BME280;59072;42.144;25.200;2023-07-31T00:18:18;99416.59;;;24.89;48.78
71149;BME280;59072;42.144;25.200;2023-07-31T00:20:46;99414.63;;;24.77;48.76
71149;BME280;59072;42.144;25.200;2023-07-31T00:23:12;99403.34;;;24.49;49.41
71149;BME280;59072;42.144;25.200;2023-07-31T00:25:37;99398.38;;;24.51;49.25
71149;BME280;59072;42.144;25.200;2023-07-31T00:28:05;99403.84;;;24.51;49.50
71149;BME280;59072;42.144;25.200;2023-07-31T00:30:30;99404.72;;;24.25;50.88
71149;BME280;59072;42.144;25.200;2023-07-31T00:32:56;99416.78;;;24.15;51.12
71149;BME280;59072;42.144;25.200;2023-07-31T00:35:21;99427.28;;;24.34;51.06
71149;BME280;59072;42.144;25.200;2023-07-31T00:37:47;99428.66;;;24.49;50.54
71149;BME280;59072;42.144;25.200;2023-07-31T00:40:12;99429.31;;;24.55;50.45
71149;BME280;59072;42.144;25.200;2023-07-31T00:42:40;99427.22;;;24.52;50.69
71149;BME280;59072;42.144;25.200;2023-07-31T00:45:06;99439.06;;;24.56;50.79
71149;BME280;59072;42.144;25.200;2023-07-31T00:47:34;99439.75;;;24.53;51.09
71149;BME280;59072;42.144;25.200;2023-07-31T00:49:59;99443.69;;;24.64;50.99
71149;BME280;59072;42.144;25.200;2023-07-31T00:52:25;99444.97;;;24.66;50.73
71149;BME280;59072;42.144;25.200;2023-07-31T00:54:50;99443.63;;;24.34;51.80
71149;BME280;59072;42.144;25.200;2023-07-31T00:57:16;99441.47;;;24.57;51.79
71149;BME280;59072;42.144;25.200;2023-07-31T00:59:41;99441.31;;;24.54;51.63
71149;BME280;59072;42.144;25.200;2023-07-31T01:02:07;99454.94;;;24.62;51.08
71149;BME280;59072;42.144;25.200;2023-07-31T01:04:32;99451.69;;;24.69;51.75
71149;BME280;59072;42.144;25.200;2023-07-31T01:07:31;99453.19;;;24.58;51.62
71149;BME280;59072;42.144;25.200;2023-07-31T01:10:03;99459.44;;;24.58;52.08
71149;BME280;59072;42.144;25.200;2023-07-31T01:12:30;99449.84;;;24.52;51.59
71149;BME280;59072;42.144;25.200;2023-07-31T01:15:05;99456.16;;;24.26;52.46
71149;BME280;59072;42.144;25.200;2023-07-31T01:17:31;99453.16;;;24.19;52.76
71149;BME280;59072;42.144;25.200;2023-07-31T01:20:00;99461.28;;;24.28;52.93
71149;BME280;59072;42.144;25.200;2023-07-31T01:28:05;99461.63;;;24.18;52.68
71149;BME280;59072;42.144;25.200;2023-07-31T01:30:34;99445.50;;;23.95;53.41
71149;BME280;59072;42.144;25.200;2023-07-31T01:33:03;99447.13;;;23.88;53.78
71149;BME280;59072;42.144;25.200;2023-07-31T01:35:36;99455.78;;;23.81;53.88
71149;BME280;59072;42.144;25.200;2023-07-31T01:38:03;99452.53;;;23.96;52.94
71149;BME280;59072;42.144;25.200;2023-07-31T01:40:29;99447.88;;;24.05;53.06
71149;BME280;59072;42.144;25.200;2023-07-31T01:42:55;99449.31;;;24.12;53.23
71149;BME280;59072;42.144;25.200;2023-07-31T01:45:20;99447.56;;;23.98;53.54
71149;BME280;59072;42.144;25.200;2023-07-31T01:47:46;99461.03;;;23.86;54.42
71149;BME280;59072;42.144;25.200;2023-07-31T01:50:12;99458.78;;;23.88;54.24
71149;BME280;59072;42.144;25.200;2023-07-31T01:52:37;99455.72;;;24.16;53.50
71149;BME280;59072;42.144;25.200;2023-07-31T01:55:03;99449.69;;;23.93;53.73
71149;BME280;59072;42.144;25.200;2023-07-31T01:57:28;99452.22;;;23.72;54.63
71149;BME280;59072;42.144;25.200;2023-07-31T01:59:54;99449.53;;;23.54;55.03
71149;BME280;59072;42.144;25.200;2023-07-31T02:02:20;99450.94;;;23.52;54.91
71149;BME280;59072;42.144;25.200;2023-07-31T02:04:46;99460.38;;;23.72;54.52
71149;BME280;59072;42.144;25.200;2023-07-31T02:07:11;99453.97;;;23.33;55.57
71149;BME280;59072;42.144;25.200;2023-07-31T02:09:37;99445.50;;;23.34;55.57
71149;BME280;59072;42.144;25.200;2023-07-31T02:12:02;99460.72;;;23.61;54.79
71149;BME280;59072;42.144;25.200;2023-07-31T02:14:28;99463.44;;;23.53;54.70
71149;BME280;59072;42.144;25.200;2023-07-31T02:16:53;99465.03;;;23.54;54.41
71149;BME280;59072;42.144;25.200;2023-07-31T02:19:19;99474.94;;;23.32;54.33
71149;BME280;59072;42.144;25.200;2023-07-31T02:21:44;99485.66;;;23.11;55.79
71149;BME280;59072;42.144;25.200;2023-07-31T02:24:10;99492.41;;;23.40;55.06
71149;BME280;59072;42.144;25.200;2023-07-31T02:26:35;99490.34;;;23.72;54.77
71149;BME280;59072;42.144;25.200;2023-07-31T02:29:01;99494.97;;;23.45;54.84
71149;BME280;59072;42.144;25.200;2023-07-31T02:31:26;99497.31;;;23.20;55.83
71149;BME280;59072;42.144;25.200;2023-07-31T02:33:51;99503.59;;;23.47;55.54
71149;BME280;59072;42.144;25.200;2023-07-31T02:36:17;99499.63;;;23.53;55.18
71149;BME280;59072;42.144;25.200;2023-07-31T02:38:42;99506.50;;;23.42;54.98
71149;BME280;59072;42.144;25.200;2023-07-31T02:41:07;99505.19;;;23.31;54.78
71149;BME280;59072;42.144;25.200;2023-07-31T02:43:33;99491.09;;;23.11;55.41
71149;BME280;59072;42.144;25.200;2023-07-31T02:45:59;99501.50;;;23.26;55.26
71149;BME280;59072;42.144;25.200;2023-07-31T02:48:24;99493.22;;;23.40;54.55
71149;BME280;59072;42.144;25.200;2023-07-31T02:50:50;99499.13;;;23.34;54.20
71149;BME280;59072;42.144;25.200;2023-07-31T02:53:15;99500.22;;;23.15;55.51
71149;BME280;59072;42.144;25.200;2023-07-31T02:55:41;99491.88;;;23.20;55.42
71149;BME280;59072;42.144;25.200;2023-07-31T02:58:06;99500.09;;;23.38;54.88
71149;BME280;59072;42.144;25.200;2023-07-31T03:00:31;99487.09;;;23.26;55.53
71149;BME280;59072;42.144;25.200;2023-07-31T03:02:57;99480.28;;;23.81;54.98
71149;BME280;59072;42.144;25.200;2023-07-31T03:05:22;99479.94;;;23.91;54.32
71149;BME280;59072;42.144;25.200;2023-07-31T03:07:50;99456.03;;;24.14;53.32
71149;BME280;59072;42.144;25.200;2023-07-31T03:10:15;99484.25;;;23.92;53.50
71149;BME280;59072;42.144;25.200;2023-07-31T03:12:41;99475.06;;;24.23;53.38
71149;BME280;59072;42.144;25.200;2023-07-31T03:15:07;99467.97;;;24.39;52.91
71149;BME280;59072;42.144;25.200;2023-07-31T03:17:35;99485.75;;;24.54;52.41
71149;BME280;59072;42.144;25.200;2023-07-31T03:20:00;99486.56;;;24.37;53.36
71149;BME280;59072;42.144;25.200;2023-07-31T03:22:25;99488.81;;;24.91;51.40
71149;BME280;59072;42.144;25.200;2023-07-31T03:24:51;99486.88;;;24.92;50.86
71149;BME280;59072;42.144;25.200;2023-07-31T03:27:16;99488.34;;;24.42;52.60
71149;BME280;59072;42.144;25.200;2023-07-31T03:29:41;99487.19;;;24.52;52.75
71149;BME280;59072;42.144;25.200;2023-07-31T03:32:07;99480.78;;;24.56;51.81
71149;BME280;59072;42.144;25.200;2023-07-31T03:34:32;99482.53;;;24.61;52.27
71149;BME280;59072;42.144;25.200;2023-07-31T03:36:59;99478.84;;;24.57;52.57
71149;BME280;59072;42.144;25.200;2023-07-31T03:39:26;99476.88;;;24.66;52.07
71149;BME280;59072;42.144;25.200;2023-07-31T03:41:52;99464.97;;;24.32;52.95
71149;BME280;59072;42.144;25.200;2023-07-31T03:44:17;99470.88;;;24.34;53.08
71149;BME280;59072;42.144;25.200;2023-07-31T03:46:43;99469.50;;;24.19;53.52
71149;BME280;59072;42.144;25.200;2023-07-31T03:49:10;99484.09;;;23.97;52.95
71149;BME280;59072;42.144;25.200;2023-07-31T03:51:36;99476.09;;;23.92;54.56
71149;BME280;59072;42.144;25.200;2023-07-31T03:54:01;99470.91;;;24.17;53.71
71149;BME280;59072;42.144;25.200;2023-07-31T03:56:27;99465.16;;;24.18;53.34
71149;BME280;59072;42.144;25.200;2023-07-31T03:58:52;99463.97;;;24.37;53.02
71149;BME280;59072;42.144;25.200;2023-07-31T04:01:19;99472.59;;;24.47;52.94
71149;BME280;59072;42.144;25.200;2023-07-31T04:03:45;99472.34;;;24.32;52.62
71149;BME280;59072;42.144;25.200;2023-07-31T04:06:10;99479.09;;;24.25;53.59
71149;BME280;59072;42.144;25.200;2023-07-31T04:08:36;99487.13;;;24.69;52.73
71149;BME280;59072;42.144;25.200;2023-07-31T04:11:01;99486.03;;;24.61;52.70
71149;BME280;59072;42.144;25.200;2023-07-31T04:13:26;99492.66;;;24.52;52.81
71149;BME280;59072;42.144;25.200;2023-07-31T04:15:54;99497.31;;;24.42;52.54
71149;BME280;59072;42.144;25.200;2023-07-31T04:18:20;99512.25;;;24.19;53.66
71149;BME280;59072;42.144;25.200;2023-07-31T04:20:48;99511.63;;;24.04;55.09
71149;BME280;59072;42.144;25.200;2023-07-31T04:23:13;99525.75;;;24.06;54.90
71149;BME280;59072;42.144;25.200;2023-07-31T04:25:39;99529.72;;;24.26;55.03
71149;BME280;59072;42.144;25.200;2023-07-31T04:28:04;99527.66;;;24.06;55.59
71149;BME280;59072;42.144;25.200;2023-07-31T04:30:29;99534.72;;;24.16;55.73
71149;BME280;59072;42.144;25.200;2023-07-31T04:32:55;99540.97;;;24.16;55.87
71149;BME280;59072;42.144;25.200;2023-07-31T04:35:20;99543.69;;;24.08;58.05
71149;BME280;59072;42.144;25.200;2023-07-31T04:37:46;99548.16;;;24.21;59.50
71149;BME280;59072;42.144;25.200;2023-07-31T04:40:13;99540.16;;;23.98;62.31
71149;BME280;59072;42.144;25.200;2023-07-31T04:42:42;99542.88;;;23.98;63.17
71149;BME280;59072;42.144;25.200;2023-07-31T04:45:08;99547.19;;;23.64;65.02
71149;BME280;59072;42.144;25.200;2023-07-31T04:47:34;99547.31;;;23.59;64.17
71149;BME280;59072;42.144;25.200;2023-07-31T04:49:59;99542.97;;;23.32;66.79
71149;BME280;59072;42.144;25.200;2023-07-31T04:52:25;99554.75;;;23.10;68.69
71149;BME280;59072;42.144;25.200;2023-07-31T04:54:50;99566.50;;;22.97;69.66
71149;BME280;59072;42.144;25.200;2023-07-31T04:57:15;99563.47;;;22.67;70.19
71149;BME280;59072;42.144;25.200;2023-07-31T04:59:41;99564.16;;;22.41;70.87
71149;BME280;59072;42.144;25.200;2023-07-31T05:02:08;99561.31;;;22.10;74.70
71149;BME280;59072;42.144;25.200;2023-07-31T05:04:33;99566.19;;;21.63;79.32
71149;BME280;59072;42.144;25.200;2023-07-31T05:06:59;99579.56;;;21.32;85.72
71149;BME280;59072;42.144;25.200;2023-07-31T05:09:24;99576.06;;;21.45;87.52
71149;BME280;59072;42.144;25.200;2023-07-31T05:11:50;99582.41;;;21.54;86.00
71149;BME280;59072;42.144;25.200;2023-07-31T05:14:15;99593.81;;;21.65;86.44
71149;BME280;59072;42.144;25.200;2023-07-31T05:16:41;99599.25;;;21.65;86.76
71149;BME280;59072;42.144;25.200;2023-07-31T05:19:06;99592.50;;;21.76;86.95
71149;BME280;59072;42.144;25.200;2023-07-31T05:21:32;99581.72;;;21.85;87.24
71149;BME280;59072;42.144;25.200;2023-07-31T05:23:57;99579.03;;;22.07;86.28
71149;BME280;59072;42.144;25.200;2023-07-31T05:26:23;99580.31;;;22.24;86.23
71149;BME280;59072;42.144;25.200;2023-07-31T05:28:48;99592.38;;;22.18;85.20
71149;BME280;59072;42.144;25.200;2023-07-31T05:31:14;99587.72;;;22.55;84.13
71149;BME280;59072;42.144;25.200;2023-07-31T05:33:39;99600.25;;;22.42;85.45
71149;BME280;59072;42.144;25.200;2023-07-31T05:36:05;99593.84;;;22.38;85.38
71149;BME280;59072;42.144;25.200;2023-07-31T05:38:30;99595.38;;;22.53;84.38
71149;BME280;59072;42.144;25.200;2023-07-31T05:40:58;99598.66;;;22.95;80.23
71149;BME280;59072;42.144;25.200;2023-07-31T05:43:24;99593.53;;;22.62;84.31
71149;BME280;59072;42.144;25.200;2023-07-31T05:45:51;99591.88;;;22.83;82.73
71149;BME280;59072;42.144;25.200;2023-07-31T05:48:16;99592.34;;;22.85;83.03
71149;BME280;59072;42.144;25.200;2023-07-31T05:50:43;99607.38;;;23.14;80.24
71149;BME280;59072;42.144;25.200;2023-07-31T05:53:09;99612.25;;;22.95;82.81
71149;BME280;59072;42.144;25.200;2023-07-31T05:55:35;99601.75;;;23.02;84.49
71149;BME280;59072;42.144;25.200;2023-07-31T05:58:01;99586.88;;;23.08;84.40
71149;BME280;59072;42.144;25.200;2023-07-31T06:00:26;99605.13;;;23.08;87.59
71149;BME280;59072;42.144;25.200;2023-07-31T06:02:53;99598.66;;;23.35;84.69
71149;BME280;59072;42.144;25.200;2023-07-31T06:05:18;99600.09;;;23.32;87.30
71149;BME280;59072;42.144;25.200;2023-07-31T06:07:44;99604.94;;;23.44;85.21
71149;BME280;59072;42.144;25.200;2023-07-31T06:10:09;99603.63;;;23.41;87.43
71149;BME280;59072;42.144;25.200;2023-07-31T06:12:35;99605.25;;;23.34;88.13
71149;BME280;59072;42.144;25.200;2023-07-31T06:15:02;99600.09;;;23.32;86.57
71149;BME280;59072;42.144;25.200;2023-07-31T06:17:28;99611.56;;;23.60;83.90
71149;BME280;59072;42.144;25.200;2023-07-31T06:19:54;99619.72;;;23.69;83.70
71149;BME280;59072;42.144;25.200;2023-07-31T06:22:19;99613.69;;;23.98;81.42
71149;BME280;59072;42.144;25.200;2023-07-31T06:24:46;99620.75;;;23.91;81.75
71149;BME280;59072;42.144;25.200;2023-07-31T06:27:11;99617.22;;;23.90;83.02
71149;BME280;59072;42.144;25.200;2023-07-31T06:29:37;99602.91;;;23.58;85.36
71149;BME280;59072;42.144;25.200;2023-07-31T06:32:02;99617.78;;;23.61;84.60
71149;BME280;59072;42.144;25.200;2023-07-31T06:34:28;99616.53;;;23.18;86.56
71149;BME280;59072;42.144;25.200;2023-07-31T06:36:54;99605.03;;;23.21;85.39
71149;BME280;59072;42.144;25.200;2023-07-31T06:39:19;99611.56;;;23.20;86.24
71149;BME280;59072;42.144;25.200;2023-07-31T06:41:44;99609.31;;;22.82;87.33
71149;BME280;59072;42.144;25.200;2023-07-31T06:44:10;99605.53;;;23.23;87.60
71149;BME280;59072;42.144;25.200;2023-07-31T06:46:36;99603.38;;;23.03;88.54
71149;BME280;59072;42.144;25.200;2023-07-31T06:49:01;99609.50;;;23.17;88.73
71149;BME280;59072;42.144;25.200;2023-07-31T06:51:27;99610.56;;;23.08;88.89
71149;BME280;59072;42.144;25.200;2023-07-31T06:53:52;99615.03;;;23.03;88.15
71149;BME280;59072;42.144;25.200;2023-07-31T06:56:18;99606.38;;;22.70;89.82
71149;BME280;59072;42.144;25.200;2023-07-31T06:58:43;99605.19;;;22.94;91.86
71149;BME280;59072;42.144;25.200;2023-07-31T07:01:09;99612.63;;;23.02;88.63
71149;BME280;59072;42.144;25.200;2023-07-31T07:03:34;99610.13;;;23.14;89.40
71149;BME280;59072;42.144;25.200;2023-07-31T07:06:00;99613.03;;;23.26;86.13
71149;BME280;59072;42.144;25.200;2023-07-31T07:08:25;99616.88;;;23.25;87.26
71149;BME280;59072;42.144;25.200;2023-07-31T07:10:51;99611.28;;;23.31;89.05
71149;BME280;59072;42.144;25.200;2023-07-31T07:13:16;99602.03;;;23.40;87.68
71149;BME280;59072;42.144;25.200;2023-07-31T07:15:47;99600.66;;;23.60;87.12
71149;BME280;59072;42.144;25.200;2023-07-31T07:18:13;99610.97;;;23.81;84.26
71149;BME280;59072;42.144;25.200;2023-07-31T07:20:39;99601.53;;;24.04;87.78
71149;BME280;59072;42.144;25.200;2023-07-31T07:23:04;99601.03;;;24.29;84.67
71149;BME280;59072;42.144;25.200;2023-07-31T07:25:30;99592.06;;;24.28;88.50
71149;BME280;59072;42.144;25.200;2023-07-31T07:27:57;99605.53;;;24.16;85.00
71149;BME280;59072;42.144;25.200;2023-07-31T07:30:24;99599.47;;;24.01;84.46
71149;BME280;59072;42.144;25.200;2023-07-31T07:32:50;99601.03;;;24.37;83.18
71149;BME280;59072;42.144;25.200;2023-07-31T07:35:15;99602.59;;;24.73;81.93
71149;BME280;59072;42.144;25.200;2023-07-31T07:37:41;99605.66;;;24.72;80.56
71149;BME280;59072;42.144;25.200;2023-07-31T07:40:07;99608.69;;;24.70;80.50
71149;BME280;59072;42.144;25.200;2023-07-31T07:42:32;99604.72;;;24.59;79.71
71149;BME280;59072;42.144;25.200;2023-07-31T07:44:58;99605.81;;;24.75;80.67
71149;BME280;59072;42.144;25.200;2023-07-31T07:47:23;99609.56;;;25.09;76.54
71149;BME280;59072;42.144;25.200;2023-07-31T07:49:51;99605.84;;;25.14;83.93
71149;BME280;59072;42.144;25.200;2023-07-31T07:52:16;99595.16;;;25.38;79.56
71149;BME280;59072;42.144;25.200;2023-07-31T07:54:42;99598.94;;;25.76;77.28
71149;BME280;59072;42.144;25.200;2023-07-31T07:57:07;99593.47;;;25.76;78.98
71149;BME280;59072;42.144;25.200;2023-07-31T07:59:32;99594.25;;;26.06;77.55
71149;BME280;59072;42.144;25.200;2023-07-31T08:01:58;99588.84;;;26.18;78.00
71149;BME280;59072;42.144;25.200;2023-07-31T08:04:23;99595.81;;;26.28;75.82
71149;BME280;59072;42.144;25.200;2023-07-31T08:06:49;99590.91;;;26.55;71.82
71149;BME280;59072;42.144;25.200;2023-07-31T08:09:14;99590.25;;;26.58;72.56
71149;BME280;59072;42.144;25.200;2023-07-31T08:11:40;99590.25;;;26.58;75.92
71149;BME280;59072;42.144;25.200;2023-07-31T08:14:05;99588.72;;;26.81;72.33
71149;BME280;59072;42.144;25.200;2023-07-31T08:16:34;99589.34;;;27.24;72.61
71149;BME280;59072;42.144;25.200;2023-07-31T08:18:59;99585.31;;;27.21;68.32
71149;BME280;59072;42.144;25.200;2023-07-31T08:21:25;99596.25;;;27.21;70.49
71149;BME280;59072;42.144;25.200;2023-07-31T08:23:50;99591.69;;;27.13;67.96
71149;BME280;59072;42.144;25.200;2023-07-31T08:26:17;99596.75;;;27.36;68.97
71149;BME280;59072;42.144;25.200;2023-07-31T08:28:43;99603.34;;;27.72;67.58
71149;BME280;59072;42.144;25.200;2023-07-31T08:31:15;99602.00;;;27.41;69.80
71149;BME280;59072;42.144;25.200;2023-07-31T08:33:41;99602.41;;;27.92;65.42
71149;BME280;59072;42.144;25.200;2023-07-31T08:36:06;99599.22;;;27.78;67.80
71149;BME280;59072;42.144;25.200;2023-07-31T08:38:32;99605.25;;;27.83;68.48
71149;BME280;59072;42.144;25.200;2023-07-31T08:40:58;99606.22;;;28.16;66.24
71149;BME280;59072;42.144;25.200;2023-07-31T08:43:27;99610.59;;;28.33;69.33
71149;BME280;59072;42.144;25.200;2023-07-31T08:45:53;99604.59;;;28.15;64.65
71149;BME280;59072;42.144;25.200;2023-07-31T08:48:20;99609.31;;;28.14;65.05
71149;BME280;59072;42.144;25.200;2023-07-31T08:50:45;99606.81;;;28.37;62.38
71149;BME280;59072;42.144;25.200;2023-07-31T08:53:11;99604.78;;;28.34;63.67
71149;BME280;59072;42.144;25.200;2023-07-31T08:55:38;99597.72;;;28.21;66.39
71149;BME280;59072;42.144;25.200;2023-07-31T08:58:04;99601.50;;;28.57;63.21
71149;BME280;59072;42.144;25.200;2023-07-31T09:00:32;99581.94;;;28.90;66.76
71149;BME280;59072;42.144;25.200;2023-07-31T09:03:00;99593.91;;;28.98;65.48
71149;BME280;59072;42.144;25.200;2023-07-31T09:05:31;99588.94;;;29.35;60.54
71149;BME280;59072;42.144;25.200;2023-07-31T09:07:57;99585.66;;;29.30;61.48
71149;BME280;59072;42.144;25.200;2023-07-31T09:10:23;99590.56;;;29.36;60.89
71149;BME280;59072;42.144;25.200;2023-07-31T09:12:51;99588.22;;;29.07;61.32
71149;BME280;59072;42.144;25.200;2023-07-31T09:15:17;99595.66;;;29.38;62.22
71149;BME280;59072;42.144;25.200;2023-07-31T09:17:42;99597.84;;;29.48;60.88
71149;BME280;59072;42.144;25.200;2023-07-31T09:20:17;99607.63;;;29.30;60.22
71149;BME280;59072;42.144;25.200;2023-07-31T09:22:46;99600.47;;;28.93;62.55
71149;BME280;59072;42.144;25.200;2023-07-31T09:27:57;99602.19;;;29.14;58.23
71149;BME280;59072;42.144;25.200;2023-07-31T09:30:26;99598.16;;;28.79;60.79
71149;BME280;59072;42.144;25.200;2023-07-31T09:33:00;99592.84;;;29.02;59.58
71149;BME280;59072;42.144;25.200;2023-07-31T09:35:31;99590.50;;;29.52;58.15
71149;BME280;59072;42.144;25.200;2023-07-31T09:37:59;99588.13;;;30.05;56.97
71149;BME280;59072;42.144;25.200;2023-07-31T09:40:28;99591.63;;;30.22;54.75
71149;BME280;59072;42.144;25.200;2023-07-31T09:43:02;99579.16;;;30.48;53.36
71149;BME280;59072;42.144;25.200;2023-07-31T09:45:28;99579.75;;;30.37;53.58
71149;BME280;59072;42.144;25.200;2023-07-31T09:47:55;99567.88;;;30.33;54.86
71149;BME280;59072;42.144;25.200;2023-07-31T09:50:22;99570.34;;;30.61;52.80
71149;BME280;59072;42.144;25.200;2023-07-31T09:52:47;99576.84;;;30.73;48.33
71149;BME280;59072;42.144;25.200;2023-07-31T09:55:13;99567.44;;;30.12;53.75
71149;BME280;59072;42.144;25.200;2023-07-31T09:57:43;99558.09;;;29.97;53.71
71149;BME280;59072;42.144;25.200;2023-07-31T10:00:10;99557.28;;;30.16;54.39
71149;BME280;59072;42.144;25.200;2023-07-31T10:02:37;99561.22;;;30.34;55.29
71149;BME280;59072;42.144;25.200;2023-07-31T10:05:04;99565.28;;;30.40;51.21
71149;BME280;59072;42.144;25.200;2023-07-31T10:07:31;99560.28;;;30.92;50.38
71149;BME280;59072;42.144;25.200;2023-07-31T10:10:00;99571.41;;;30.76;48.70
71149;BME280;59072;42.144;25.200;2023-07-31T10:12:27;99566.13;;;30.44;50.69
71149;BME280;59072;42.144;25.200;2023-07-31T10:14:55;99560.03;;;30.55;50.26
71149;BME280;59072;42.144;25.200;2023-07-31T10:17:22;99574.88;;;31.19;47.10
71149;BME280;59072;42.144;25.200;2023-07-31T10:19:49;99555.50;;;31.39;48.30
71149;BME280;59072;42.144;25.200;2023-07-31T10:22:15;99560.41;;;31.79;47.13
71149;BME280;59072;42.144;25.200;2023-07-31T10:24:45;99555.38;;;32.19;48.05
71149;BME280;59072;42.144;25.200;2023-07-31T10:27:11;99555.28;;;32.53;46.49
71149;BME280;59072;42.144;25.200;2023-07-31T10:29:41;99554.53;;;31.84;46.34
71149;BME280;59072;42.144;25.200;2023-07-31T10:32:09;99545.31;;;31.16;46.53
71149;BME280;59072;42.144;25.200;2023-07-31T10:34:37;99541.97;;;30.80;49.45
71149;BME280;59072;42.144;25.200;2023-07-31T10:37:35;99521.47;;;31.01;47.17
71149;BME280;59072;42.144;25.200;2023-07-31T10:40:05;99533.13;;;30.91;48.33
71149;BME280;59072;42.144;25.200;2023-07-31T10:45:00;99523.03;;;30.98;47.32
71149;BME280;59072;42.144;25.200;2023-07-31T10:47:26;99514.91;;;31.36;46.43
71149;BME280;59072;42.144;25.200;2023-07-31T10:49:52;99517.84;;;31.80;45.63
71149;BME280;59072;42.144;25.200;2023-07-31T10:52:21;99515.56;;;32.20;42.97
71149;BME280;59072;42.144;25.200;2023-07-31T10:55:15;99506.78;;;31.77;44.60
71149;BME280;59072;42.144;25.200;2023-07-31T10:57:45;99507.78;;;31.95;45.62
71149;BME280;59072;42.144;25.200;2023-07-31T11:00:30;99504.28;;;31.64;44.59
71149;BME280;59072;42.144;25.200;2023-07-31T11:05:59;99512.47;;;31.91;43.59
71149;BME280;59072;42.144;25.200;2023-07-31T11:08:27;99514.38;;;31.53;44.05
71149;BME280;59072;42.144;25.200;2023-07-31T11:11:06;99507.13;;;32.02;42.17
71149;BME280;59072;42.144;25.200;2023-07-31T11:13:44;99504.25;;;32.32;43.08
71149;BME280;59072;42.144;25.200;2023-07-31T11:16:12;99502.72;;;32.35;41.50
71149;BME280;59072;42.144;25.200;2023-07-31T11:18:41;99492.78;;;32.71;41.67
71149;BME280;59072;42.144;25.200;2023-07-31T11:21:08;99498.06;;;32.05;42.52
71149;BME280;59072;42.144;25.200;2023-07-31T11:23:37;99500.38;;;32.37;41.11
71149;BME280;59072;42.144;25.200;2023-07-31T11:26:05;99482.78;;;32.11;41.79
71149;BME280;59072;42.144;25.200;2023-07-31T11:28:32;99487.28;;;31.93;41.49
71149;BME280;59072;42.144;25.200;2023-07-31T11:30:59;99479.31;;;31.84;41.00
71149;BME280;59072;42.144;25.200;2023-07-31T11:33:25;99477.47;;;32.36;41.17
71149;BME280;59072;42.144;25.200;2023-07-31T11:35:50;99482.28;;;32.47;42.03
71149;BME280;59072;42.144;25.200;2023-07-31T11:38:30;99467.22;;;32.33;39.65
71149;BME280;59072;42.144;25.200;2023-07-31T11:41:00;99469.19;;;31.95;42.02
71149;BME280;59072;42.144;25.200;2023-07-31T11:43:25;99463.69;;;32.36;44.72
71149;BME280;59072;42.144;25.200;2023-07-31T11:45:56;99468.31;;;32.66;42.60
71149;BME280;59072;42.144;25.200;2023-07-31T11:48:26;99470.59;;;32.57;41.87
71149;BME280;59072;42.144;25.200;2023-07-31T11:51:00;99468.88;;;32.93;41.84
71149;BME280;59072;42.144;25.200;2023-07-31T11:53:53;99469.03;;;32.15;42.98
71149;BME280;59072;42.144;25.200;2023-07-31T11:56:21;99466.88;;;31.63;42.76
71149;BME280;59072;42.144;25.200;2023-07-31T11:58:50;99468.28;;;31.23;44.94
71149;BME280;59072;42.144;25.200;2023-07-31T12:01:19;99444.00;;;30.76;44.75
71149;BME280;59072;42.144;25.200;2023-07-31T12:03:46;99458.69;;;30.60;44.45
71149;BME280;59072;42.144;25.200;2023-07-31T12:06:12;99453.97;;;30.15;48.51
71149;BME280;59072;42.144;25.200;2023-07-31T12:08:37;99447.22;;;29.70;49.35
71149;BME280;59072;42.144;25.200;2023-07-31T12:11:07;99445.75;;;29.56;51.56
71149;BME280;59072;42.144;25.200;2023-07-31T12:13:35;99442.38;;;29.08;52.96
71149;BME280;59072;42.144;25.200;2023-07-31T12:16:01;99447.72;;;29.01;52.79
71149;BME280;59072;42.144;25.200;2023-07-31T12:18:28;99456.94;;;28.93;52.60
71149;BME280;59072;42.144;25.200;2023-07-31T12:20:58;99444.81;;;28.94;53.15
71149;BME280;59072;42.144;25.200;2023-07-31T12:23:29;99440.97;;;29.14;54.02
71149;BME280;59072;42.144;25.200;2023-07-31T12:26:06;99447.88;;;29.08;51.71
71149;BME280;59072;42.144;25.200;2023-07-31T12:28:46;99455.97;;;29.36;50.82
71149;BME280;59072;42.144;25.200;2023-07-31T12:31:14;99462.31;;;29.60;54.74
71149;BME280;59072;42.144;25.200;2023-07-31T12:33:43;99474.31;;;30.10;54.92
71149;BME280;59072;42.144;25.200;2023-07-31T12:36:11;99461.69;;;30.52;53.65
71149;BME280;59072;42.144;25.200;2023-07-31T12:38:38;99453.28;;;31.48;55.24
71149;BME280;59072;42.144;25.200;2023-07-31T12:41:06;99440.31;;;32.23;52.01
71149;BME280;59072;42.144;25.200;2023-07-31T12:43:35;99439.25;;;32.35;47.23
71149;BME280;59072;42.144;25.200;2023-07-31T12:46:01;99445.19;;;32.40;48.34
71149;BME280;59072;42.144;25.200;2023-07-31T12:48:29;99448.28;;;32.32;46.30
71149;BME280;59072;42.144;25.200;2023-07-31T12:50:55;99454.84;;;32.61;44.20
71149;BME280;59072;42.144;25.200;2023-07-31T12:53:20;99449.25;;;32.54;44.93
71149;BME280;59072;42.144;25.200;2023-07-31T12:55:46;99447.03;;;32.70;44.02
71149;BME280;59072;42.144;25.200;2023-07-31T12:58:12;99431.28;;;32.74;43.69
71149;BME280;59072;42.144;25.200;2023-07-31T13:00:37;99420.50;;;33.17;44.70
71149;BME280;59072;42.144;25.200;2023-07-31T13:03:03;99414.31;;;33.46;41.17